Akeley, Minnesota
Current Conditions -  °F | °C
As of 5:15 PM on Saturday 25 Oct 2014 (Local Time) from KY49 Reporting Station
Clear Clear  
Wind Chill: 54°   Ceiling: Unl
Heat Index: 54°   Visibility: 10mi
Dew Point: 25°   Wind: 9mph
Humidity: 32%   Direction: 300°WNW
Pressure: 30.03"   Gusts: 21mph
Location:  47°N, 94.73°W
Report Text: KY49 252215Z AUTO 30008G18KT 10SM CLR 12/M04 A3003 RMK AO2 T01241041
Loading
Personal Weather Stations






























Interactive Weather Map
Tropical Storm Tracking
New forecast layout! Learn more

10-Day Weather Forecast

Advertisements
Track Severe Weather on mobile